Time,TemperatureF,DewpointF,PressureIn,WindDirection,WindDirectionDegrees,WindSpeedMPH,WindSpeedGustMPH,Humidity,HourlyPrecipIn,Conditions,Clouds,dailyrainin,SoftwareType,DateUTC
2013-11-16 00:14:00,50.0,46.0,29.85,SSW,198,6.0,21.0,87,0.00,,,0.00,weatherlink.com 1.10,2013-11-16 06:14:00,
2013-11-16 00:29:00,50.1,46.0,29.84,South,171,4.0,20.0,87,0.00,,,0.00,weatherlink.com 1.10,2013-11-16 06:29:00,
2013-11-16 00:44:00,50.1,46.0,29.83,South,173,10.0,16.0,87,0.00,,,0.00,weatherlink.com 1.10,2013-11-16 06:44:00,
2013-11-16 00:59:00,50.2,46.0,29.84,SSW,201,9.0,16.0,86,0.00,,,0.00,weatherlink.com 1.10,2013-11-16 06:59:00,
2013-11-16 01:14:00,50.4,46.0,29.83,SSW,206,14.0,17.0,86,0.00,,,0.00,weatherlink.com 1.10,2013-11-16 07:14:00,
2013-11-16 01:29:00,50.6,47.0,29.83,South,178,11.0,16.0,86,0.00,,,0.00,weatherlink.com 1.10,2013-11-16 07:29:00,
2013-11-16 01:44:00,50.8,47.0,29.84,SSE,164,10.0,18.0,87,0.00,,,0.00,weatherlink.com 1.10,2013-11-16 07:44:00,
2013-11-16 01:59:00,51.0,47.0,29.84,SW,225,5.0,14.0,87,0.00,,,0.00,weatherlink.com 1.10,2013-11-16 07:59:00,
2013-11-16 02:14:00,51.4,48.0,29.84,South,185,8.0,15.0,87,0.00,,,0.00,weatherlink.com 1.10,2013-11-16 08:14:00,
2013-11-16 02:29:00,51.6,48.0,29.83,South,175,8.0,12.0,87,0.00,,,0.00,weatherlink.com 1.10,2013-11-16 08:29:00,
2013-11-16 02:44:00,51.7,48.0,29.83,SSW,192,3.0,15.0,87,0.00,,,0.00,weatherlink.com 1.10,2013-11-16 08:44:00,
2013-11-16 02:59:00,51.6,48.0,29.83,SSW,209,7.0,12.0,87,0.00,,,0.00,weatherlink.com 1.10,2013-11-16 08:59:00,
2013-11-16 03:14:00,51.7,48.0,29.82,South,169,6.0,14.0,88,0.00,,,0.00,weatherlink.com 1.10,2013-11-16 09:14:00,
2013-11-16 03:29:00,51.6,48.0,29.81,South,181,8.0,13.0,88,0.00,,,0.00,weatherlink.com 1.10,2013-11-16 09:29:00,
2013-11-16 03:45:00,51.6,48.0,29.80,SSE,157,5.0,14.0,88,0.00,,,0.00,weatherlink.com 1.10,2013-11-16 09:45:00,
2013-11-16 03:59:00,51.5,48.0,29.80,SSE,165,2.0,9.0,88,0.00,,,0.00,weatherlink.com 1.10,2013-11-16 09:59:00,
2013-11-16 04:14:00,51.4,48.0,29.80,South,173,7.0,11.0,89,0.00,,,0.00,weatherlink.com 1.10,2013-11-16 10:14:00,
2013-11-16 04:29:00,51.7,49.0,29.79,SE,129,7.0,14.0,89,0.00,,,0.00,weatherlink.com 1.10,2013-11-16 10:29:00,
2013-11-16 04:44:00,51.8,49.0,29.79,South,172,6.0,11.0,89,0.00,,,0.00,weatherlink.com 1.10,2013-11-16 10:44:00,
2013-11-16 04:59:00,51.9,49.0,29.78,SSE,163,11.0,14.0,89,0.00,,,0.00,weatherlink.com 1.10,2013-11-16 10:59:00,
2013-11-16 05:14:00,52.2,49.0,29.78,South,170,12.0,14.0,90,0.00,,,0.00,weatherlink.com 1.10,2013-11-16 11:14:00,
2013-11-16 05:29:00,52.5,50.0,29.77,South,170,9.0,14.0,90,0.00,,,0.00,weatherlink.com 1.10,2013-11-16 11:29:00,
2013-11-16 05:44:00,52.8,50.0,29.76,SSE,161,5.0,16.0,90,0.00,,,0.00,weatherlink.com 1.10,2013-11-16 11:44:00,
2013-11-16 05:59:00,53.2,50.0,29.76,South,175,6.0,17.0,89,0.00,,,0.00,weatherlink.com 1.10,2013-11-16 11:59:00,
2013-11-16 06:14:00,53.3,50.0,29.75,SSE,164,10.0,16.0,89,0.00,,,0.00,weatherlink.com 1.10,2013-11-16 12:14:00,
2013-11-16 06:29:00,53.7,51.0,29.75,South,175,8.0,17.0,89,0.00,,,0.00,weatherlink.com 1.10,2013-11-16 12:29:00,
2013-11-16 06:44:00,54.1,51.0,29.75,South,173,12.0,16.0,89,0.00,,,0.00,weatherlink.com 1.10,2013-11-16 12:44:00,
2013-11-16 06:59:00,54.3,51.0,29.74,SSE,153,9.0,17.0,89,0.00,,,0.00,weatherlink.com 1.10,2013-11-16 12:59:00,
2013-11-16 07:15:00,54.9,52.0,29.74,SSW,205,12.0,18.0,89,0.00,,,0.00,weatherlink.com 1.10,2013-11-16 13:15:00,
2013-11-16 07:30:00,55.4,52.0,29.74,South,175,8.0,15.0,88,0.00,,,0.00,weatherlink.com 1.10,2013-11-16 13:30:00,
2013-11-16 07:45:00,55.6,52.0,29.74,South,178,9.0,17.0,88,0.00,,,0.00,weatherlink.com 1.10,2013-11-16 13:45:00,
2013-11-16 08:00:00,56.2,53.0,29.74,South,180,7.0,19.0,88,0.00,,,0.00,weatherlink.com 1.10,2013-11-16 14:00:00,
2013-11-16 08:15:00,56.9,53.0,29.74,SSE,159,12.0,16.0,87,0.00,,,0.00,weatherlink.com 1.10,2013-11-16 14:15:00,
2013-11-16 08:30:00,57.3,53.0,29.73,South,176,10.0,16.0,86,0.00,,,0.00,weatherlink.com 1.10,2013-11-16 14:30:00,
2013-11-16 08:45:00,57.9,54.0,29.73,SSE,167,16.0,16.0,86,0.00,,,0.00,weatherlink.com 1.10,2013-11-16 14:45:00,
2013-11-16 09:00:00,58.5,54.0,29.73,SSE,157,8.0,17.0,85,0.00,,,0.00,weatherlink.com 1.10,2013-11-16 15:00:00,
2013-11-16 09:15:00,59.4,55.0,29.74,South,179,16.0,20.0,84,0.00,,,0.00,weatherlink.com 1.10,2013-11-16 15:15:00,
2013-11-16 09:30:00,60.5,55.0,29.74,SSW,205,11.0,21.0,82,0.00,,,0.00,weatherlink.com 1.10,2013-11-16 15:30:00,
2013-11-16 09:45:00,61.2,55.0,29.74,SSW,205,9.0,22.0,81,0.00,,,0.00,weatherlink.com 1.10,2013-11-16 15:45:00,
2013-11-16 10:00:00,61.8,56.0,29.74,SSE,161,7.0,21.0,80,0.00,,,0.00,weatherlink.com 1.10,2013-11-16 16:00:00,
2013-11-16 10:15:00,63.0,56.0,29.73,West,265,9.0,25.0,78,0.00,,,0.00,weatherlink.com 1.10,2013-11-16 16:15:00,
2013-11-16 10:30:00,63.7,56.0,29.73,South,182,12.0,19.0,76,0.00,,,0.00,weatherlink.com 1.10,2013-11-16 16:30:00,
2013-11-16 10:45:00,64.2,57.0,29.73,SSW,197,13.0,23.0,76,0.00,,,0.00,weatherlink.com 1.10,2013-11-16 16:45:00,
2013-11-16 11:00:00,63.5,56.0,29.71,South,184,17.0,28.0,77,0.01,,,0.01,weatherlink.com 1.10,2013-11-16 17:00:00,
2013-11-16 11:15:00,63.2,56.0,29.70,South,190,10.0,20.0,78,0.01,,,0.01,weatherlink.com 1.10,2013-11-16 17:15:00,
2013-11-16 11:30:00,63.3,56.0,29.69,SSW,203,9.0,34.0,78,0.01,,,0.01,weatherlink.com 1.10,2013-11-16 17:30:00,
2013-11-16 11:45:00,63.5,56.0,29.68,South,183,17.0,25.0,77,0.01,,,0.01,weatherlink.com 1.10,2013-11-16 17:45:00,
2013-11-16 12:00:00,63.7,56.0,29.68,SW,223,13.0,28.0,77,0.00,,,0.01,weatherlink.com 1.10,2013-11-16 18:00:00,
2013-11-16 12:16:00,63.2,57.0,29.66,SSW,204,7.0,26.0,79,0.00,,,0.01,weatherlink.com 1.10,2013-11-16 18:16:00,
2013-11-16 12:30:00,62.7,57.0,29.65,South,187,8.0,24.0,81,0.00,,,0.01,weatherlink.com 1.10,2013-11-16 18:30:00,
2013-11-16 12:45:00,61.8,57.0,29.66,South,169,11.0,22.0,84,0.01,,,0.02,weatherlink.com 1.10,2013-11-16 18:45:00,
2013-11-16 13:00:00,60.6,57.0,29.62,South,184,14.0,24.0,87,0.04,,,0.05,weatherlink.com 1.10,2013-11-16 19:00:00,
2013-11-16 13:15:00,60.4,57.0,29.61,SSE,166,14.0,22.0,89,0.05,,,0.06,weatherlink.com 1.10,2013-11-16 19:15:00,
2013-11-16 13:30:00,60.4,57.0,29.60,South,182,11.0,21.0,89,0.05,,,0.06,weatherlink.com 1.10,2013-11-16 19:30:00,
2013-11-16 13:45:00,60.4,57.0,29.58,SSE,165,16.0,20.0,89,0.04,,,0.06,weatherlink.com 1.10,2013-11-16 19:45:00,
2013-11-16 14:01:00,60.6,57.0,29.58,SSE,157,7.0,20.0,88,0.01,,,0.06,weatherlink.com 1.10,2013-11-16 20:01:00,
2013-11-16 14:16:00,60.8,57.0,29.57,SSE,161,9.0,21.0,87,0.00,,,0.06,weatherlink.com 1.10,2013-11-16 20:16:00,
2013-11-16 14:31:00,62.0,58.0,29.56,SSE,151,13.0,22.0,86,0.00,,,0.06,weatherlink.com 1.10,2013-11-16 20:31:00,
2013-11-16 14:46:00,62.9,58.0,29.54,South,169,10.0,20.0,83,0.00,,,0.06,weatherlink.com 1.10,2013-11-16 20:46:00,
2013-11-16 15:01:00,64.0,58.0,29.53,SW,220,10.0,25.0,80,0.00,,,0.06,weatherlink.com 1.10,2013-11-16 21:01:00,
2013-11-16 15:16:00,64.4,57.0,29.54,SW,228,13.0,27.0,78,0.00,,,0.06,weatherlink.com 1.10,2013-11-16 21:16:00,
2013-11-16 15:31:00,64.3,58.0,29.54,South,180,17.0,22.0,79,0.00,,,0.06,weatherlink.com 1.10,2013-11-16 21:31:00,
2013-11-16 15:46:00,64.0,57.0,29.54,South,188,17.0,21.0,79,0.00,,,0.06,weatherlink.com 1.10,2013-11-16 21:46:00,
2013-11-16 16:01:00,63.5,57.0,29.52,SSE,167,10.0,24.0,80,0.00,,,0.06,weatherlink.com 1.10,2013-11-16 22:01:00,
2013-11-16 16:16:00,63.2,57.0,29.53,South,180,9.0,22.0,81,0.00,,,0.06,weatherlink.com 1.10,2013-11-16 22:16:00,
2013-11-16 16:31:00,63.0,57.0,29.53,South,185,12.0,18.0,81,0.00,,,0.06,weatherlink.com 1.10,2013-11-16 22:31:00,
2013-11-16 16:46:00,63.0,57.0,29.54,South,184,5.0,17.0,81,0.00,,,0.06,weatherlink.com 1.10,2013-11-16 22:46:00,
2013-11-16 17:01:00,62.8,57.0,29.54,South,186,13.0,18.0,81,0.00,,,0.06,weatherlink.com 1.10,2013-11-16 23:01:00,
2013-11-16 17:16:00,62.5,57.0,29.54,SSE,160,9.0,21.0,81,0.00,,,0.06,weatherlink.com 1.10,2013-11-16 23:16:00,
2013-11-16 17:31:00,62.1,57.0,29.55,SSE,159,15.0,15.0,82,0.00,,,0.06,weatherlink.com 1.10,2013-11-16 23:31:00,
2013-11-16 17:46:00,61.9,56.0,29.55,SSE,157,3.0,17.0,82,0.00,,,0.06,weatherlink.com 1.10,2013-11-16 23:46:00,
2013-11-16 18:01:00,61.7,56.0,29.57,SSW,198,7.0,13.0,82,0.00,,,0.06,weatherlink.com 1.10,2013-11-17 00:01:00,
2013-11-16 18:16:00,61.6,56.0,29.56,South,187,9.0,13.0,82,0.00,,,0.06,weatherlink.com 1.10,2013-11-17 00:16:00,
2013-11-16 18:31:00,61.7,56.0,29.56,South,191,10.0,15.0,82,0.00,,,0.06,weatherlink.com 1.10,2013-11-17 00:31:00,
2013-11-16 18:46:00,62.0,56.0,29.57,SSW,194,9.0,17.0,82,0.00,,,0.06,weatherlink.com 1.10,2013-11-17 00:46:00,
2013-11-16 19:01:00,62.1,57.0,29.57,SSW,211,6.0,16.0,82,0.00,,,0.06,weatherlink.com 1.10,2013-11-17 01:01:00,
2013-11-16 19:16:00,62.3,57.0,29.57,South,183,9.0,17.0,82,0.00,,,0.06,weatherlink.com 1.10,2013-11-17 01:16:00,
2013-11-16 19:31:00,62.2,57.0,29.57,South,171,13.0,18.0,82,0.00,,,0.06,weatherlink.com 1.10,2013-11-17 01:31:00,
2013-11-16 19:46:00,62.1,57.0,29.58,South,177,10.0,17.0,82,0.00,,,0.06,weatherlink.com 1.10,2013-11-17 01:46:00,
2013-11-16 20:01:00,62.5,57.0,29.58,SSW,203,5.0,17.0,82,0.00,,,0.06,weatherlink.com 1.10,2013-11-17 02:01:00,
2013-11-16 20:16:00,62.7,57.0,29.58,SSW,195,5.0,15.0,82,0.00,,,0.06,weatherlink.com 1.10,2013-11-17 02:16:00,
2013-11-16 20:31:00,62.4,57.0,29.57,SSW,200,9.0,13.0,82,0.00,,,0.06,weatherlink.com 1.10,2013-11-17 02:31:00,
2013-11-16 20:46:00,62.0,57.0,29.58,SSW,211,3.0,14.0,83,0.00,,,0.06,weatherlink.com 1.10,2013-11-17 02:46:00,
2013-11-16 21:01:00,62.0,57.0,29.58,South,183,7.0,12.0,83,0.00,,,0.06,weatherlink.com 1.10,2013-11-17 03:01:00,
2013-11-16 21:16:00,62.2,57.0,29.58,SSW,198,7.0,11.0,82,0.00,,,0.06,weatherlink.com 1.10,2013-11-17 03:16:00,
2013-11-16 21:31:00,62.6,57.0,29.57,SSE,149,7.0,16.0,82,0.00,,,0.06,weatherlink.com 1.10,2013-11-17 03:31:00,
2013-11-16 21:46:00,62.9,58.0,29.57,SSE,166,10.0,17.0,83,0.00,,,0.06,weatherlink.com 1.10,2013-11-17 03:46:00,
2013-11-16 22:01:00,62.9,58.0,29.57,South,181,11.0,17.0,83,0.00,,,0.06,weatherlink.com 1.10,2013-11-17 04:01:00,
2013-11-16 22:16:00,63.3,58.0,29.56,SSW,201,14.0,18.0,83,0.00,,,0.06,weatherlink.com 1.10,2013-11-17 04:16:00,
2013-11-16 22:31:00,63.6,58.0,29.56,South,177,3.0,18.0,83,0.00,,,0.06,weatherlink.com 1.10,2013-11-17 04:31:00,
2013-11-16 22:46:00,64.1,59.0,29.56,South,179,3.0,19.0,83,0.00,,,0.06,weatherlink.com 1.10,2013-11-17 04:46:00,
2013-11-16 23:01:00,64.5,59.0,29.56,South,178,8.0,19.0,83,0.00,,,0.06,weatherlink.com 1.10,2013-11-17 05:01:00,
2013-11-16 23:16:00,64.4,59.0,29.55,SSW,213,7.0,18.0,83,0.00,,,0.06,weatherlink.com 1.10,2013-11-17 05:16:00,
2013-11-16 23:31:00,63.8,60.0,29.54,SSE,161,9.0,20.0,86,0.01,,,0.07,weatherlink.com 1.10,2013-11-17 05:31:00,
2013-11-16 23:46:00,63.4,60.0,29.53,SSW,193,10.0,26.0,87,0.01,,,0.07,weatherlink.com 1.10,2013-11-17 05:46:00,